Aviation Digital Data Service (ADDS)

Output produced by METARs form (0826 UTC 31 March 2015)
found at http://aviationweather.gov/adds/metars/
 
KSBY 310520Z 3106/0106 25006KT P6SM BKN250 
     FM311500 23014G24KT P6SM BKN250 
     FM311800 21020G28KT P6SM BKN100 
     FM312300 25015KT P6SM BKN070 
     FM010200 31012KT P6SM BKN100